createdAt,value
2023-11-17T00:00:46.247Z,4.45
2023-11-17T00:06:09.024Z,4.42
2023-11-17T00:11:13.135Z,4.39
2023-11-17T00:16:18.441Z,4.35
2023-11-17T00:21:22.610Z,4.30
2023-11-17T00:26:26.618Z,4.30
2023-11-17T00:31:32.530Z,4.29
2023-11-17T00:36:35.471Z,4.27
2023-11-17T00:41:38.471Z,4.27
2023-11-17T00:46:41.912Z,4.24
2023-11-17T00:51:46.404Z,4.23
2023-11-17T00:56:49.369Z,4.23
2023-11-17T01:01:52.780Z,4.21
2023-11-17T01:06:56.151Z,4.16
2023-11-17T01:11:59.240Z,4.11
2023-11-17T01:17:02.291Z,4.06
2023-11-17T01:22:07.882Z,3.99
2023-11-17T01:27:10.971Z,3.95
2023-11-17T01:32:14.639Z,3.91
2023-11-17T01:37:17.690Z,3.88
2023-11-17T01:42:20.731Z,3.87
2023-11-17T01:47:23.775Z,3.86
2023-11-17T01:52:26.783Z,3.83
2023-11-17T01:57:30.309Z,3.77
2023-11-17T02:02:34.862Z,3.77
2023-11-17T02:08:11.944Z,3.78
2023-11-17T02:13:26.895Z,3.79
2023-11-17T02:18:31.474Z,3.78
2023-11-17T02:23:35.725Z,3.79
2023-11-17T02:29:01.141Z,3.83
2023-11-17T02:34:07.130Z,3.84
2023-11-17T02:39:16.771Z,3.84
2023-11-17T02:44:20.395Z,3.82
2023-11-17T02:49:24.423Z,3.83
2023-11-17T02:54:27.662Z,3.84
2023-11-17T02:59:36.333Z,3.84
2023-11-17T03:04:40.542Z,3.81
2023-11-17T03:09:43.490Z,3.81
2023-11-17T03:14:46.751Z,3.84
2023-11-17T03:19:49.768Z,3.83
2023-11-17T03:24:53.692Z,3.81
2023-11-17T03:29:56.829Z,3.80
2023-11-17T03:34:59.866Z,3.81
2023-11-17T03:40:19.504Z,3.79
2023-11-17T03:45:22.847Z,3.79
2023-11-17T03:50:27.190Z,3.77
2023-11-17T03:55:30.246Z,3.74
2023-11-17T04:00:35.328Z,3.72
2023-11-17T04:05:38.808Z,3.71
2023-11-17T04:10:41.871Z,3.71
2023-11-17T04:15:45.545Z,3.71
2023-11-17T04:20:49.505Z,3.69
2023-11-17T04:25:52.560Z,3.68
2023-11-17T04:30:55.746Z,3.67
2023-11-17T04:35:59.963Z,3.66
2023-11-17T04:41:03.773Z,3.66
2023-11-17T04:46:08.332Z,3.66
2023-11-17T04:51:11.493Z,3.63
2023-11-17T04:56:14.735Z,3.61
2023-11-17T05:01:18.023Z,3.61
2023-11-17T05:06:24.934Z,3.59
2023-11-17T05:11:28.528Z,3.57
2023-11-17T05:16:33.130Z,3.56
2023-11-17T05:21:36.182Z,3.56
2023-11-17T05:26:39.204Z,3.58
2023-11-17T05:31:43.467Z,3.57
2023-11-17T05:36:47.571Z,3.58
2023-11-17T05:41:50.573Z,3.57
2023-11-17T05:46:53.873Z,3.54
2023-11-17T05:51:58.146Z,3.51
2023-11-17T05:57:01.187Z,3.50
2023-11-17T06:02:05.224Z,3.48
2023-11-17T06:07:09.878Z,3.44
2023-11-17T06:12:14.039Z,3.42
2023-11-17T06:17:17.050Z,3.41
2023-11-17T06:22:20.549Z,3.42
2023-11-17T06:27:25.047Z,3.43
2023-11-17T06:32:28.878Z,3.42
2023-11-17T06:37:32.119Z,3.42
2023-11-17T06:42:35.190Z,3.42
2023-11-17T06:47:39.269Z,3.41
2023-11-17T06:52:43.157Z,3.44
2023-11-17T06:57:48.036Z,3.47
2023-11-17T07:02:51.253Z,3.47
2023-11-17T07:07:55.114Z,3.49
2023-11-17T07:12:59.455Z,3.48
2023-11-17T07:18:04.744Z,3.47
2023-11-17T07:23:10.219Z,3.46
2023-11-17T07:28:13.631Z,3.49
2023-11-17T07:33:19.601Z,3.53
2023-11-17T07:38:22.726Z,3.53
2023-11-17T07:43:25.821Z,3.51
2023-11-17T07:48:29.087Z,3.51
2023-11-17T07:53:32.181Z,3.46
2023-11-17T07:58:36.554Z,3.48
2023-11-17T08:03:40.104Z,3.47
2023-11-17T08:08:43.294Z,3.50
2023-11-17T08:13:46.661Z,3.50
2023-11-17T08:18:52.102Z,3.51
2023-11-17T08:23:55.404Z,3.48
2023-11-17T08:28:58.777Z,3.47
2023-11-17T08:34:01.826Z,3.48
2023-11-17T08:39:04.880Z,3.51
2023-11-17T08:44:10.077Z,3.50
2023-11-17T08:49:13.916Z,3.48
2023-11-17T08:54:19.187Z,3.48
2023-11-17T08:59:23.095Z,3.52
2023-11-17T09:04:26.773Z,3.52
2023-11-17T09:09:31.028Z,3.55
2023-11-17T09:14:35.688Z,3.56
2023-11-17T09:19:40.216Z,3.58
2023-11-17T09:24:43.303Z,3.60
2023-11-17T09:29:46.375Z,3.62
2023-11-17T09:34:50.442Z,3.61
2023-11-17T09:39:53.488Z,3.62
2023-11-17T09:44:56.602Z,3.62
2023-11-17T09:50:00.559Z,3.64
2023-11-17T09:55:04.048Z,3.68
2023-11-17T10:00:18.540Z,3.71
2023-11-17T10:05:30.348Z,3.74
2023-11-17T10:10:37.745Z,3.74
2023-11-17T10:15:43.469Z,3.76
2023-11-17T10:20:47.172Z,3.75
2023-11-17T10:25:59.147Z,3.77
2023-11-17T10:31:06.645Z,3.74
2023-11-17T10:36:14.474Z,3.72
2023-11-17T10:41:36.666Z,3.72
2023-11-17T10:46:46.481Z,3.66
2023-11-17T10:51:51.319Z,3.65
2023-11-17T10:56:57.572Z,3.63
2023-11-17T11:02:00.904Z,3.62
2023-11-17T11:07:04.295Z,3.61
2023-11-17T11:12:09.876Z,3.62
2023-11-17T11:17:13.554Z,3.65
2023-11-17T11:22:16.812Z,3.66
2023-11-17T11:27:19.901Z,3.67
2023-11-17T11:32:23.801Z,3.66
2023-11-17T11:37:33.797Z,3.63
2023-11-17T11:42:37.032Z,3.64
2023-11-17T11:47:40.176Z,3.67
2023-11-17T11:52:58.456Z,3.67
2023-11-17T11:58:01.545Z,3.66
2023-11-17T12:03:08.574Z,3.67
2023-11-17T12:08:24.346Z,3.66
2023-11-17T12:13:50.117Z,3.65
2023-11-17T12:18:53.373Z,3.64
2023-11-17T12:23:58.336Z,3.64
2023-11-17T12:29:01.528Z,3.66
2023-11-17T12:34:06.466Z,3.66
2023-11-17T12:39:10.142Z,3.62
2023-11-17T12:44:18.323Z,3.61
2023-11-17T12:49:21.400Z,3.61
2023-11-17T12:54:24.848Z,3.58
2023-11-17T12:59:28.598Z,3.55
2023-11-17T13:04:37.038Z,3.53
2023-11-17T13:09:40.865Z,3.55
2023-11-17T13:14:43.960Z,3.54
2023-11-17T13:19:47.118Z,3.46
2023-11-17T13:24:50.149Z,3.39
2023-11-17T13:29:53.252Z,3.35
2023-11-17T13:34:56.424Z,3.29
2023-11-17T13:40:00.274Z,3.23
2023-11-17T13:45:05.072Z,3.19
2023-11-17T13:50:16.508Z,3.17
2023-11-17T13:55:21.068Z,3.12
2023-11-17T14:00:27.291Z,3.09
2023-11-17T14:05:30.540Z,3.04
2023-11-17T14:10:34.867Z,2.99
2023-11-17T14:15:47.841Z,2.96
2023-11-17T14:20:56.514Z,2.94
2023-11-17T14:25:59.802Z,2.90
2023-11-17T14:31:03.358Z,2.80
2023-11-17T14:36:06.734Z,2.66
2023-11-17T14:41:11.469Z,2.55
2023-11-17T14:46:21.239Z,2.50
2023-11-17T14:51:24.454Z,2.45
2023-11-17T14:56:28.584Z,2.40
2023-11-17T15:01:32.246Z,2.37
2023-11-17T15:06:35.387Z,2.30
2023-11-17T15:11:38.394Z,2.26
2023-11-17T15:16:42.059Z,2.22
2023-11-17T15:21:45.334Z,2.16
2023-11-17T15:26:50.987Z,2.06
2023-11-17T15:31:54.938Z,1.99
2023-11-17T15:36:58.871Z,1.95
2023-11-17T15:42:02.227Z,1.88
2023-11-17T15:47:05.226Z,1.75
2023-11-17T15:52:08.460Z,1.70
2023-11-17T15:57:11.834Z,1.74
2023-11-17T16:02:15.018Z,1.69
2023-11-17T16:07:19.138Z,1.68
2023-11-17T16:12:22.078Z,1.67
2023-11-17T16:17:28.412Z,1.68
2023-11-17T16:22:31.616Z,1.64
2023-11-17T16:27:34.617Z,1.62
2023-11-17T16:32:38.806Z,1.60
2023-11-17T16:37:48.050Z,1.56
2023-11-17T16:43:04.023Z,1.56
2023-11-17T16:48:07.565Z,1.53
2023-11-17T16:53:10.930Z,1.53
2023-11-17T16:58:14.498Z,1.50
2023-11-17T17:03:18.497Z,1.50
2023-11-17T17:08:27.429Z,1.44
2023-11-17T17:13:31.895Z,1.42
2023-11-17T17:18:35.099Z,1.41
2023-11-17T17:23:38.823Z,1.44
2023-11-17T17:28:41.892Z,1.34
2023-11-17T17:33:45.482Z,1.30
2023-11-17T17:38:48.602Z,1.29
2023-11-17T17:43:57.097Z,1.21
2023-11-17T17:49:01.139Z,1.17
2023-11-17T17:54:06.186Z,1.13
2023-11-17T17:59:09.396Z,1.11
2023-11-17T18:04:13.337Z,1.10
2023-11-17T18:09:16.517Z,1.06
2023-11-17T18:14:19.738Z,1.06
2023-11-17T18:19:22.801Z,1.06
2023-11-17T18:24:25.843Z,1.03
2023-11-17T18:29:28.806Z,1.00
2023-11-17T18:34:32.463Z,1.01
2023-11-17T18:39:38.310Z,1.00
2023-11-17T18:44:41.374Z,1.00
2023-11-17T18:49:46.182Z,1.00
2023-11-17T18:54:51.235Z,1.02
2023-11-17T18:59:54.372Z,0.98
2023-11-17T19:04:57.684Z,0.97
2023-11-17T19:10:00.734Z,0.98
2023-11-17T19:15:08.251Z,0.99
2023-11-17T19:20:14.517Z,0.99
2023-11-17T19:25:18.302Z,1.01
2023-11-17T19:30:21.602Z,1.01
2023-11-17T19:35:24.748Z,1.01
2023-11-17T19:40:28.229Z,0.99
2023-11-17T19:45:31.597Z,0.99
2023-11-17T19:50:35.084Z,0.97
2023-11-17T19:55:38.183Z,0.95
2023-11-17T20:00:41.287Z,0.92
2023-11-17T20:05:45.928Z,0.93
2023-11-17T20:10:49.742Z,0.91
2023-11-17T20:15:52.803Z,0.93
2023-11-17T20:20:56.332Z,0.90
2023-11-17T20:26:02.893Z,0.93
2023-11-17T20:31:07.454Z,0.95
2023-11-17T20:36:21.565Z,0.96
2023-11-17T20:41:25.230Z,0.94
2023-11-17T20:46:29.185Z,0.97
2023-11-17T20:51:32.929Z,0.99
2023-11-17T20:56:35.990Z,0.99
2023-11-17T21:01:41.077Z,0.97
2023-11-17T21:06:47.197Z,0.93
2023-11-17T21:11:50.237Z,0.89
2023-11-17T21:16:53.339Z,0.88
2023-11-17T21:21:57.298Z,0.88
2023-11-17T21:27:00.252Z,0.86
2023-11-17T21:32:03.317Z,0.90
2023-11-17T21:37:06.399Z,0.87
2023-11-17T21:42:09.393Z,0.88
2023-11-17T21:47:12.714Z,0.86
2023-11-17T21:52:15.752Z,0.85
2023-11-17T21:57:18.924Z,0.85
2023-11-17T22:02:21.897Z,0.85
2023-11-17T22:07:24.954Z,0.88
2023-11-17T22:12:28.722Z,0.89
2023-11-17T22:17:31.814Z,0.91
2023-11-17T22:22:35.071Z,0.93
2023-11-17T22:27:39.339Z,0.90
2023-11-17T22:32:42.913Z,0.89
2023-11-17T22:37:47.300Z,0.89
2023-11-17T22:42:50.534Z,0.90
2023-11-17T22:47:53.815Z,0.89
2023-11-17T22:52:57.323Z,0.87
2023-11-17T22:58:00.458Z,0.87
2023-11-17T23:03:04.756Z,0.89
2023-11-17T23:08:14.453Z,0.89
2023-11-17T23:13:19.195Z,0.89
2023-11-17T23:18:22.821Z,0.89
2023-11-17T23:23:26.240Z,0.89
2023-11-17T23:28:29.276Z,0.88
2023-11-17T23:33:32.919Z,0.85
2023-11-17T23:38:36.919Z,0.84
2023-11-17T23:43:41.023Z,0.81
2023-11-17T23:48:44.178Z,0.80
2023-11-17T23:53:47.098Z,0.79
2023-11-17T23:58:50.075Z,0.81
